createdAt,value
2022-12-24T00:02:25.301Z,100430.13
2022-12-24T00:04:55.653Z,100432.47
2022-12-24T00:07:26.803Z,100427.16
2022-12-24T00:09:53.101Z,100428.63
2022-12-24T00:12:19.413Z,100433.63
2022-12-24T00:14:47.012Z,100436.59
2022-12-24T00:17:13.447Z,100438.44
2022-12-24T00:19:39.832Z,100432.94
2022-12-24T00:22:06.160Z,100446.22
2022-12-24T00:24:32.475Z,100442.41
2022-12-24T00:26:58.856Z,100442.59
2022-12-24T00:29:25.319Z,100449.91
2022-12-24T00:31:52.945Z,100448.91
2022-12-24T00:34:19.272Z,100449.06
2022-12-24T00:36:45.569Z,100450.22
2022-12-24T00:39:11.949Z,100444.41
2022-12-24T00:41:38.243Z,100446.56
2022-12-24T00:44:05.693Z,100454.84
2022-12-24T00:46:33.018Z,100463.13
2022-12-24T00:49:01.436Z,100462.66
2022-12-24T00:51:28.034Z,100469.16
2022-12-24T00:53:54.741Z,100470.78
2022-12-24T00:56:21.241Z,100470.31
2022-12-24T00:58:47.662Z,100482.56
2022-12-24T01:01:14.238Z,100474.63
2022-12-24T01:03:40.762Z,100486.53
2022-12-24T01:06:09.432Z,100494.84
2022-12-24T01:08:36.394Z,100497.84
2022-12-24T01:11:03.488Z,100489.47
2022-12-24T01:13:29.828Z,100494.78
2022-12-24T01:15:56.234Z,100499.31
2022-12-24T01:18:22.835Z,100514.03
2022-12-24T01:20:55.046Z,100503.56
2022-12-24T01:23:22.745Z,100515.63
2022-12-24T01:25:49.081Z,100510.84
2022-12-24T01:28:15.490Z,100521.41
2022-12-24T01:30:42.332Z,100528.88
2022-12-24T01:33:08.698Z,100531.38
2022-12-24T01:35:35.061Z,100527.19
2022-12-24T01:38:01.388Z,100527.66
2022-12-24T01:40:29.128Z,100531.69
2022-12-24T01:42:55.439Z,100536.63
2022-12-24T01:45:38.111Z,100532.78
2022-12-24T01:48:05.111Z,100534.59
2022-12-24T01:50:31.509Z,100536.28
2022-12-24T01:52:57.974Z,100539.59
2022-12-24T01:55:25.863Z,100545.91
2022-12-24T01:57:56.340Z,100541.06
2022-12-24T02:00:22.685Z,100537.44
2022-12-24T02:02:52.094Z,100544.25
2022-12-24T02:05:22.452Z,100544.72
2022-12-24T02:07:49.255Z,100547.59
2022-12-24T02:10:16.149Z,100559.53
2022-12-24T02:12:43.815Z,100552.25
2022-12-24T02:15:12.776Z,100560.28
2022-12-24T02:17:44.178Z,100560.75
2022-12-24T02:20:29.276Z,100559.63
2022-12-24T02:23:19.803Z,100564.53
2022-12-24T02:25:58.387Z,100563.03
2022-12-24T02:28:33.920Z,100565.72
2022-12-24T02:31:03.957Z,100564.75
2022-12-24T02:33:33.054Z,100566.06
2022-12-24T02:36:04.591Z,100567.06
2022-12-24T02:38:32.723Z,100587.81
2022-12-24T02:41:00.922Z,100577.19
2022-12-24T02:43:29.128Z,100569.38
2022-12-24T02:45:59.554Z,100569.69
2022-12-24T02:48:28.663Z,100575.84
2022-12-24T02:50:55.735Z,100577.13
2022-12-24T02:53:22.052Z,100578.31
2022-12-24T02:55:53.979Z,100581.97
2022-12-24T02:58:28.106Z,100588.28
2022-12-24T03:00:59.074Z,100581.00
2022-12-24T03:03:36.087Z,100586.00
2022-12-24T03:06:08.173Z,100578.88
2022-12-24T03:08:42.308Z,100569.88
2022-12-24T03:11:10.408Z,100568.38
2022-12-24T03:13:37.012Z,100575.19
2022-12-24T03:16:04.557Z,100579.00
2022-12-24T03:18:32.681Z,100578.19
2022-12-24T03:21:01.962Z,100584.66
2022-12-24T03:23:28.339Z,100584.66
2022-12-24T03:25:54.875Z,100586.19
2022-12-24T03:28:24.137Z,100591.00
2022-12-24T03:30:50.519Z,100597.94
2022-12-24T03:33:16.877Z,100605.56
2022-12-24T03:35:44.595Z,100603.91
2022-12-24T03:38:10.948Z,100605.59
2022-12-24T03:40:37.244Z,100610.91
2022-12-24T03:43:03.600Z,100613.38
2022-12-24T03:45:30.177Z,100613.84
2022-12-24T03:47:56.553Z,100617.66
2022-12-24T03:50:22.901Z,100618.19
2022-12-24T03:52:50.658Z,100624.63
2022-12-24T03:55:17.089Z,100619.31
2022-12-24T03:57:43.402Z,100612.16
2022-12-24T04:00:10.389Z,100616.13
2022-12-24T04:02:36.840Z,100616.47
2022-12-24T04:05:03.462Z,100618.44
2022-12-24T04:07:29.786Z,100626.72
2022-12-24T04:09:57.484Z,100629.22
2022-12-24T04:12:23.817Z,100630.72
2022-12-24T04:14:50.304Z,100634.53
2022-12-24T04:17:17.135Z,100631.34
2022-12-24T04:19:43.455Z,100633.28
2022-12-24T04:22:09.728Z,100640.25
2022-12-24T04:24:36.070Z,100637.50
2022-12-24T04:27:03.707Z,100640.59
2022-12-24T04:29:30.019Z,100655.53
2022-12-24T04:31:56.726Z,100656.19
2022-12-24T04:34:23.055Z,100659.84
2022-12-24T04:36:49.352Z,100663.19
2022-12-24T04:39:15.669Z,100659.25
2022-12-24T04:41:42.024Z,100666.53
2022-12-24T04:44:09.726Z,100669.19
2022-12-24T04:46:36.105Z,100655.53
2022-12-24T04:49:02.461Z,100650.06
2022-12-24T04:51:29.019Z,100662.22
2022-12-24T04:53:55.950Z,100660.66
2022-12-24T04:56:23.659Z,100654.47
2022-12-24T04:58:50.282Z,100658.59
2022-12-24T05:01:19.085Z,100656.47
2022-12-24T05:03:45.480Z,100666.25
2022-12-24T05:06:13.322Z,100658.81
2022-12-24T05:08:40.109Z,100661.78
2022-12-24T05:11:07.011Z,100653.97
2022-12-24T05:13:40.752Z,100659.28
2022-12-24T05:16:13.054Z,100665.59
2022-12-24T05:18:41.045Z,100670.56
2022-12-24T05:21:08.361Z,100660.44
2022-12-24T05:23:34.656Z,100667.22
2022-12-24T05:26:00.964Z,100655.84
2022-12-24T05:28:27.307Z,100670.44
2022-12-24T05:30:53.675Z,100669.44
2022-12-24T05:33:20.003Z,100662.44
2022-12-24T05:35:47.732Z,100662.81
2022-12-24T05:38:14.055Z,100668.97
2022-12-24T05:40:40.371Z,100673.91
2022-12-24T05:43:06.679Z,100677.53
2022-12-24T05:45:33.001Z,100680.56
2022-12-24T05:47:59.388Z,100683.84
2022-12-24T05:50:25.745Z,100688.78
2022-12-24T05:52:53.427Z,100694.78
2022-12-24T05:55:19.768Z,100688.25
2022-12-24T05:57:46.104Z,100693.94
2022-12-24T06:00:12.761Z,100695.25
2022-12-24T06:02:39.160Z,100706.84
2022-12-24T06:05:05.827Z,100705.69
2022-12-24T06:07:32.293Z,100708.13
2022-12-24T06:09:59.986Z,100705.66
2022-12-24T06:12:26.331Z,100711.78
2022-12-24T06:14:52.629Z,100705.13
2022-12-24T06:17:18.921Z,100708.06
2022-12-24T06:19:45.199Z,100714.69
2022-12-24T06:22:11.549Z,100710.72
2022-12-24T06:24:37.878Z,100718.47
2022-12-24T06:27:05.532Z,100713.72
2022-12-24T06:29:31.953Z,100724.13
2022-12-24T06:31:58.424Z,100717.34
2022-12-24T06:34:24.821Z,100723.16
2022-12-24T06:36:51.142Z,100716.81
2022-12-24T06:39:17.446Z,100723.31
2022-12-24T06:41:43.760Z,100731.91
2022-12-24T06:44:11.463Z,100743.94
2022-12-24T06:46:37.872Z,100751.16
2022-12-24T06:49:04.238Z,100737.88
2022-12-24T06:51:30.584Z,100727.78
2022-12-24T06:53:56.933Z,100737.88
2022-12-24T06:56:23.219Z,100744.88
2022-12-24T06:58:49.558Z,100749.47
2022-12-24T07:01:18.593Z,100748.78
2022-12-24T07:03:45.191Z,100743.78
2022-12-24T07:06:15.149Z,100747.41
2022-12-24T07:08:41.442Z,100744.66
2022-12-24T07:11:07.740Z,100754.00
2022-12-24T07:13:34.089Z,100759.75
2022-12-24T07:16:01.213Z,100759.59
2022-12-24T07:18:29.370Z,100754.41
2022-12-24T07:20:55.721Z,100771.16
2022-12-24T07:23:22.156Z,100763.94
2022-12-24T07:25:48.481Z,100764.91
2022-12-24T07:28:14.915Z,100773.41
2022-12-24T07:30:41.236Z,100784.56
2022-12-24T07:33:07.554Z,100785.41
2022-12-24T07:35:35.251Z,100784.94
2022-12-24T07:38:01.945Z,100791.06
2022-12-24T07:40:28.310Z,100787.97
2022-12-24T07:42:54.648Z,100797.13
2022-12-24T07:45:20.958Z,100797.44
2022-12-24T07:47:47.253Z,100803.94
2022-12-24T07:50:13.561Z,100808.13
2022-12-24T07:52:41.219Z,100812.22
2022-12-24T07:55:07.803Z,100812.75
2022-12-24T07:57:34.129Z,100817.69
2022-12-24T08:00:00.470Z,100822.69
2022-12-24T08:02:26.889Z,100833.28
2022-12-24T08:04:53.298Z,100834.59
2022-12-24T08:07:19.611Z,100837.25
2022-12-24T08:09:47.259Z,100843.56
2022-12-24T08:12:13.545Z,100847.94
2022-12-24T08:14:39.860Z,100847.94
2022-12-24T08:17:06.288Z,100855.75
2022-12-24T08:19:32.607Z,100854.63
2022-12-24T08:21:58.928Z,100858.66
2022-12-24T08:24:25.486Z,100867.69
2022-12-24T08:26:53.199Z,100867.84
2022-12-24T08:29:19.515Z,100867.84
2022-12-24T08:31:45.866Z,100876.63
2022-12-24T08:34:12.306Z,100867.50
2022-12-24T08:36:38.608Z,100867.69
2022-12-24T08:39:05.280Z,100881.31
2022-12-24T08:41:31.739Z,100874.56
2022-12-24T08:43:59.428Z,100879.88
2022-12-24T08:46:25.984Z,100870.09
2022-12-24T08:48:52.530Z,100871.97
2022-12-24T08:51:18.837Z,100882.38
2022-12-24T08:53:45.262Z,100891.03
2022-12-24T08:56:12.012Z,100896.47
2022-12-24T08:58:38.558Z,100899.31
2022-12-24T09:01:12.421Z,100904.44
2022-12-24T09:03:38.891Z,100911.56
2022-12-24T09:06:05.698Z,100909.25
2022-12-24T09:08:32.148Z,100907.56
2022-12-24T09:11:02.128Z,100914.56
2022-12-24T09:13:28.566Z,100914.22
2022-12-24T09:15:55.767Z,100921.22
2022-12-24T09:18:23.541Z,100932.59
2022-12-24T09:20:53.908Z,100946.19
2022-12-24T09:23:23.252Z,100947.47
2022-12-24T09:25:49.578Z,100956.13
2022-12-24T09:28:15.869Z,100962.47
2022-12-24T09:30:42.160Z,100959.16
2022-12-24T09:33:08.473Z,100966.66
2022-12-24T09:35:37.512Z,100965.53
2022-12-24T09:38:03.888Z,100974.69
2022-12-24T09:40:33.606Z,100970.91
2022-12-24T09:43:00.345Z,100974.41
2022-12-24T09:45:29.056Z,100970.97
2022-12-24T09:47:57.599Z,100967.31
2022-12-24T09:50:31.228Z,100981.97
2022-12-24T09:53:01.128Z,100978.09
2022-12-24T09:55:29.836Z,100980.31
2022-12-24T09:57:57.961Z,100984.63
2022-12-24T10:00:27.492Z,100988.59
2022-12-24T10:02:53.941Z,101004.75
2022-12-24T10:05:26.739Z,100997.69
2022-12-24T10:07:58.886Z,100996.88
2022-12-24T10:10:31.161Z,101011.16
2022-12-24T10:13:02.171Z,101009.91
2022-12-24T10:15:30.307Z,101006.44
2022-12-24T10:18:06.413Z,101017.06
2022-12-24T10:20:36.953Z,101008.16
2022-12-24T10:23:07.482Z,101019.13
2022-12-24T10:25:38.380Z,101013.97
2022-12-24T10:28:12.484Z,101011.59
2022-12-24T10:30:39.028Z,101020.53
2022-12-24T10:33:11.782Z,101020.84
2022-12-24T10:35:44.016Z,101023.13
2022-12-24T10:38:10.567Z,101010.84
2022-12-24T10:40:41.015Z,101005.97
2022-12-24T10:43:11.680Z,101007.50
2022-12-24T10:45:41.553Z,101004.41
2022-12-24T10:48:11.792Z,101011.75
2022-12-24T10:50:40.975Z,101003.19
2022-12-24T10:53:16.202Z,101006.59
2022-12-24T10:55:43.884Z,101014.22
2022-12-24T10:58:13.788Z,101007.84
2022-12-24T11:00:40.680Z,101016.13
2022-12-24T11:03:19.827Z,101007.69
2022-12-24T11:05:46.261Z,101004.44
2022-12-24T11:08:15.741Z,101007.28
2022-12-24T11:10:44.456Z,101003.69
2022-12-24T11:13:39.368Z,101005.06
2022-12-24T11:16:07.471Z,101002.13
2022-12-24T11:18:35.311Z,101000.34
2022-12-24T11:21:02.943Z,101006.56
2022-12-24T11:23:29.498Z,101008.75
2022-12-24T11:25:56.978Z,101000.81
2022-12-24T11:28:25.816Z,101002.97
2022-12-24T11:30:56.209Z,101008.06
2022-12-24T11:33:22.562Z,101015.69
2022-12-24T11:35:51.655Z,101011.03
2022-12-24T11:38:19.622Z,101020.03
2022-12-24T11:40:47.987Z,101022.00
2022-12-24T11:43:15.903Z,101013.53
2022-12-24T11:45:49.284Z,101012.78
2022-12-24T11:48:26.253Z,101020.75
2022-12-24T11:50:56.169Z,101022.44
2022-12-24T11:53:25.708Z,101020.78
2022-12-24T11:55:53.498Z,101020.97
2022-12-24T11:58:25.139Z,101028.88
2022-12-24T12:00:58.051Z,101019.91
2022-12-24T12:03:29.158Z,101024.75
2022-12-24T12:05:55.924Z,101016.25
2022-12-24T12:08:22.607Z,101016.44
2022-12-24T12:10:49.680Z,101012.13
2022-12-24T12:13:17.607Z,101015.09
2022-12-24T12:15:47.148Z,101017.94
2022-12-24T12:18:15.712Z,101022.31
2022-12-24T12:20:43.462Z,101031.91
2022-12-24T12:23:13.741Z,101047.56
2022-12-24T12:25:43.951Z,101045.19
2022-12-24T12:28:15.576Z,101043.66
2022-12-24T12:30:43.301Z,101050.16
2022-12-24T12:33:16.182Z,101059.50
2022-12-24T12:35:44.466Z,101059.66
2022-12-24T12:38:11.927Z,101070.47
2022-12-24T12:40:48.451Z,101067.06
2022-12-24T12:43:23.645Z,101066.63
2022-12-24T12:45:53.233Z,101065.09
2022-12-24T12:48:32.268Z,101068.16
2022-12-24T12:51:04.622Z,101068.19
2022-12-24T12:53:37.522Z,101066.63
2022-12-24T12:56:08.542Z,101073.94
2022-12-24T12:58:37.492Z,101073.47
2022-12-24T13:01:08.994Z,101068.59
2022-12-24T13:03:44.209Z,101071.41
2022-12-24T13:06:26.347Z,101071.72
2022-12-24T13:09:03.663Z,101079.50
2022-12-24T13:11:39.819Z,101084.75
2022-12-24T13:14:31.908Z,101081.69
2022-12-24T13:17:13.141Z,101070.84
2022-12-24T13:19:46.737Z,101085.84
2022-12-24T13:22:18.464Z,101073.78
2022-12-24T13:24:51.782Z,101071.25
2022-12-24T13:27:20.435Z,101069.97
2022-12-24T13:29:52.069Z,101078.13
2022-12-24T13:32:37.164Z,101077.00
2022-12-24T13:35:04.780Z,101080.13
2022-12-24T13:37:34.376Z,101071.97
2022-12-24T13:40:02.104Z,101082.09
2022-12-24T13:42:48.064Z,101088.78
2022-12-24T13:45:47.582Z,101088.91
2022-12-24T13:48:27.473Z,101083.19
2022-12-24T13:50:54.714Z,101083.28
2022-12-24T13:53:23.338Z,101088.69
2022-12-24T13:55:51.563Z,101094.31
2022-12-24T13:58:18.862Z,101092.94
2022-12-24T14:00:51.982Z,101099.41
2022-12-24T14:03:22.517Z,101102.75
2022-12-24T14:05:51.004Z,101095.44
2022-12-24T14:08:26.017Z,101103.75
2022-12-24T14:11:00.159Z,101107.88
2022-12-24T14:13:45.429Z,101110.47
2022-12-24T14:16:13.076Z,101121.94
2022-12-24T14:18:40.442Z,101129.34
2022-12-24T14:21:08.143Z,101129.84
2022-12-24T14:23:43.669Z,101135.56
2022-12-24T14:26:13.905Z,101137.56
2022-12-24T14:28:42.938Z,101127.00
2022-12-24T14:31:13.741Z,101125.00
2022-12-24T14:33:40.053Z,101131.09
2022-12-24T14:36:06.887Z,101133.56
2022-12-24T14:38:33.456Z,101131.63
2022-12-24T14:41:04.184Z,101136.03
2022-12-24T14:43:37.480Z,101142.25
2022-12-24T14:46:07.170Z,101140.34
2022-12-24T14:48:38.964Z,101139.34
2022-12-24T14:51:09.530Z,101136.59
2022-12-24T14:53:45.143Z,101148.53
2022-12-24T14:56:14.016Z,101161.41
2022-12-24T14:58:42.876Z,101155.69
2022-12-24T15:01:19.005Z,101163.41
2022-12-24T15:03:45.485Z,101159.56
2022-12-24T15:06:13.079Z,101159.97
2022-12-24T15:08:40.361Z,101172.69
2022-12-24T15:11:07.957Z,101172.31
2022-12-24T15:13:36.929Z,101173.56
2022-12-24T15:16:05.487Z,101181.13
2022-12-24T15:18:35.385Z,101178.34
2022-12-24T15:21:04.581Z,101177.25
2022-12-24T15:23:32.087Z,101180.47
2022-12-24T15:26:09.378Z,101191.53
2022-12-24T15:28:36.457Z,101184.28
2022-12-24T15:31:11.715Z,101182.88
2022-12-24T15:33:38.164Z,101185.28
2022-12-24T15:36:05.416Z,101191.00
2022-12-24T15:38:32.938Z,101188.09
2022-12-24T15:41:00.310Z,101194.06
2022-12-24T15:43:27.062Z,101194.66
2022-12-24T15:45:53.464Z,101200.50
2022-12-24T15:48:24.204Z,101196.59
2022-12-24T15:50:52.236Z,101201.34
2022-12-24T15:53:22.434Z,101199.97
2022-12-24T15:55:59.825Z,101191.56
2022-12-24T15:58:27.126Z,101187.69
2022-12-24T16:01:00.312Z,101184.59
2022-12-24T16:03:28.180Z,101195.59
2022-12-24T16:05:58.790Z,101200.63
2022-12-24T16:08:26.128Z,101196.69
2022-12-24T16:10:53.965Z,101198.91
2022-12-24T16:13:22.309Z,101188.84
2022-12-24T16:15:50.926Z,101189.28
2022-12-24T16:18:19.577Z,101186.06
2022-12-24T16:20:48.686Z,101191.66
2022-12-24T16:23:17.589Z,101193.59
2022-12-24T16:25:43.991Z,101187.59
2022-12-24T16:28:14.052Z,101189.66
2022-12-24T16:30:44.041Z,101196.63
2022-12-24T16:33:14.220Z,101204.84
2022-12-24T16:35:40.650Z,101207.78
2022-12-24T16:38:08.377Z,101209.84
2022-12-24T16:40:34.715Z,101208.16
2022-12-24T16:43:01.058Z,101216.22
2022-12-24T16:45:28.625Z,101212.03
2022-12-24T16:47:56.560Z,101207.59
2022-12-24T16:50:22.924Z,101212.75
2022-12-24T16:52:49.247Z,101214.44
2022-12-24T16:55:16.973Z,101211.91
2022-12-24T16:57:43.295Z,101207.44
2022-12-24T17:00:14.082Z,101212.19
2022-12-24T17:02:40.541Z,101209.09
2022-12-24T17:05:07.361Z,101207.66
2022-12-24T17:07:37.049Z,101215.78
2022-12-24T17:10:08.560Z,101215.06
2022-12-24T17:12:36.342Z,101205.69
2022-12-24T17:15:02.681Z,101202.59
2022-12-24T17:17:29.822Z,101206.47
2022-12-24T17:19:56.315Z,101215.91
2022-12-24T17:22:22.913Z,101219.91
2022-12-24T17:24:49.294Z,101221.00
2022-12-24T17:27:15.781Z,101216.66
2022-12-24T17:29:43.681Z,101215.84
2022-12-24T17:32:10.013Z,101222.25
2022-12-24T17:34:36.534Z,101213.34
2022-12-24T17:37:02.848Z,101224.34
2022-12-24T17:39:31.449Z,101242.03
2022-12-24T17:41:57.825Z,101244.56
2022-12-24T17:44:24.158Z,101247.91
2022-12-24T17:46:51.970Z,101232.75
2022-12-24T17:49:18.492Z,101235.13
2022-12-24T17:51:45.962Z,101247.97
2022-12-24T17:54:12.511Z,101238.66
2022-12-24T17:56:38.882Z,101240.81
2022-12-24T17:59:05.232Z,101229.69
2022-12-24T18:01:32.046Z,101224.84
2022-12-24T18:04:00.346Z,101225.28
2022-12-24T18:06:27.266Z,101224.19
2022-12-24T18:08:53.909Z,101217.78
2022-12-24T18:11:21.764Z,101221.84
2022-12-24T18:13:48.615Z,101219.88
2022-12-24T18:16:16.003Z,101219.75
2022-12-24T18:18:42.419Z,101219.75
2022-12-24T18:21:10.177Z,101224.78
2022-12-24T18:23:36.513Z,101222.97
2022-12-24T18:26:03.599Z,101216.72
2022-12-24T18:28:29.963Z,101216.00
2022-12-24T18:30:57.325Z,101206.63
2022-12-24T18:33:23.657Z,101223.06
2022-12-24T18:35:49.984Z,101213.84
2022-12-24T18:38:17.682Z,101222.34
2022-12-24T18:40:44.151Z,101212.97
2022-12-24T18:43:10.514Z,101211.72
2022-12-24T18:45:39.749Z,101212.81
2022-12-24T18:48:06.190Z,101202.31
2022-12-24T18:50:32.547Z,101205.94
2022-12-24T18:52:58.870Z,101202.84
2022-12-24T18:55:26.566Z,101208.16
2022-12-24T18:57:52.917Z,101213.31
2022-12-24T19:00:19.656Z,101209.53
2022-12-24T19:02:46.076Z,101211.13
2022-12-24T19:05:12.460Z,101210.03
2022-12-24T19:07:38.774Z,101207.97
2022-12-24T19:10:05.625Z,101204.19
2022-12-24T19:12:33.304Z,101213.56
2022-12-24T19:14:59.641Z,101221.94
2022-12-24T19:17:25.974Z,101226.94
2022-12-24T19:19:52.299Z,101217.91
2022-12-24T19:22:18.636Z,101221.16
2022-12-24T19:24:45.085Z,101212.22
2022-12-24T19:27:11.359Z,101207.63
2022-12-24T19:29:41.546Z,101214.59
2022-12-24T19:32:07.897Z,101216.25
2022-12-24T19:34:34.281Z,101217.94
2022-12-24T19:37:00.676Z,101219.63
2022-12-24T19:39:31.953Z,101226.59
2022-12-24T19:41:58.834Z,101215.16
2022-12-24T19:44:25.148Z,101222.13
2022-12-24T19:46:52.853Z,101224.78
2022-12-24T19:49:19.183Z,101228.28
2022-12-24T19:51:45.602Z,101233.69
2022-12-24T19:54:18.442Z,101230.22
2022-12-24T19:56:45.458Z,101226.84
2022-12-24T19:59:11.958Z,101233.13
2022-12-24T20:01:38.397Z,101230.63
2022-12-24T20:04:06.332Z,101231.72
2022-12-24T20:06:33.631Z,101225.72
2022-12-24T20:09:00.166Z,101234.63
2022-12-24T20:11:26.852Z,101231.16
2022-12-24T20:13:55.557Z,101241.75
2022-12-24T20:16:21.912Z,101246.19
2022-12-24T20:18:50.480Z,101242.72
2022-12-24T20:21:18.139Z,101249.81
2022-12-24T20:23:44.477Z,101254.28
2022-12-24T20:26:11.961Z,101255.09
2022-12-24T20:28:38.427Z,101256.91
2022-12-24T20:31:09.162Z,101249.81
2022-12-24T20:33:35.471Z,101251.75
2022-12-24T20:36:01.935Z,101247.47
2022-12-24T20:38:29.601Z,101251.91
2022-12-24T20:40:56.788Z,101256.50
2022-12-24T20:43:24.585Z,101262.63
2022-12-24T20:45:51.270Z,101270.56
2022-12-24T20:48:17.699Z,101270.56
2022-12-24T20:50:44.029Z,101267.09
2022-12-24T20:53:10.443Z,101265.41
2022-12-24T20:55:38.096Z,101261.91
2022-12-24T20:58:04.518Z,101262.75
2022-12-24T21:00:30.865Z,101266.38
2022-12-24T21:02:57.328Z,101255.91
2022-12-24T21:05:23.752Z,101260.38
2022-12-24T21:07:50.133Z,101259.53
2022-12-24T21:10:16.509Z,101257.84
2022-12-24T21:12:44.174Z,101255.19
2022-12-24T21:15:10.548Z,101254.22
2022-12-24T21:17:37.183Z,101240.28
2022-12-24T21:20:03.684Z,101245.56
2022-12-24T21:22:29.986Z,101253.66
2022-12-24T21:24:56.353Z,101248.34
2022-12-24T21:27:22.665Z,101248.34
2022-12-24T21:29:50.330Z,101246.53
2022-12-24T21:32:16.617Z,101245.69
2022-12-24T21:34:42.960Z,101237.75
2022-12-24T21:37:09.290Z,101232.47
2022-12-24T21:39:35.654Z,101236.78
2022-12-24T21:42:01.951Z,101235.13
2022-12-24T21:44:28.288Z,101216.59
2022-12-24T21:46:55.950Z,101202.53
2022-12-24T21:49:22.302Z,101202.38
2022-12-24T21:51:48.718Z,101201.53
2022-12-24T21:54:15.228Z,101194.59
2022-12-24T21:56:41.663Z,101185.09
2022-12-24T21:59:07.957Z,101194.03
2022-12-24T22:01:34.368Z,101189.56
2022-12-24T22:04:02.133Z,101196.78
2022-12-24T22:06:28.667Z,101198.72
2022-12-24T22:08:55.500Z,101182.94
2022-12-24T22:11:21.793Z,101175.28
2022-12-24T22:13:48.116Z,101175.13
2022-12-24T22:16:14.474Z,101170.84
2022-12-24T22:18:40.792Z,101166.50
2022-12-24T22:21:08.617Z,101180.84
2022-12-24T22:23:42.120Z,101189.16
2022-12-24T22:26:11.847Z,101185.81
2022-12-24T22:28:38.165Z,101171.91
2022-12-24T22:31:04.543Z,101177.31
2022-12-24T22:33:30.860Z,101189.00
2022-12-24T22:35:57.179Z,101178.78
2022-12-24T22:38:24.836Z,101180.88
2022-12-24T22:40:51.204Z,101180.44
2022-12-24T22:43:17.503Z,101185.16
2022-12-24T22:45:43.860Z,101183.47
2022-12-24T22:48:10.265Z,101182.88
2022-12-24T22:50:39.066Z,101184.09
2022-12-24T22:53:05.441Z,101175.75
2022-12-24T22:55:33.112Z,101179.72
2022-12-24T22:57:59.445Z,101180.00
2022-12-24T23:00:39.221Z,101171.50
2022-12-24T23:03:05.969Z,101183.28
2022-12-24T23:05:32.463Z,101172.97
2022-12-24T23:07:59.062Z,101175.75
2022-12-24T23:10:25.414Z,101180.44
2022-12-24T23:12:53.081Z,101182.50
2022-12-24T23:15:19.436Z,101189.59
2022-12-24T23:17:47.967Z,101200.88
2022-12-24T23:20:14.284Z,101193.41
2022-12-24T23:22:40.614Z,101194.94
2022-12-24T23:25:07.252Z,101206.94
2022-12-24T23:27:33.587Z,101204.78
2022-12-24T23:30:01.286Z,101195.59
2022-12-24T23:32:27.676Z,101209.16
2022-12-24T23:34:53.996Z,101212.25
2022-12-24T23:37:20.311Z,101210.19
2022-12-24T23:39:46.701Z,101206.31
2022-12-24T23:42:13.035Z,101198.22
2022-12-24T23:44:39.452Z,101206.03
2022-12-24T23:47:07.090Z,101202.44
2022-12-24T23:49:33.411Z,101214.81
2022-12-24T23:51:59.717Z,101205.91
2022-12-24T23:54:26.661Z,101204.94
2022-12-24T23:56:52.988Z,101211.91
2022-12-24T23:59:19.298Z,101211.66
